sensor_id;sensor_type;location;lat;lon;timestamp;P1;durP1;ratioP1;P2;durP2;ratioP2
1993;SDS011;998;49.906;10.908;2023-03-04T00:00:05;13.10;;;8.03;;
1993;SDS011;998;49.906;10.908;2023-03-04T00:02:33;10.73;;;6.30;;
1993;SDS011;998;49.906;10.908;2023-03-04T00:05:01;9.87;;;6.60;;
1993;SDS011;998;49.906;10.908;2023-03-04T00:07:28;10.00;;;6.57;;
1993;SDS011;998;49.906;10.908;2023-03-04T00:09:56;11.27;;;7.73;;
1993;SDS011;998;49.906;10.908;2023-03-04T00:12:23;13.40;;;7.93;;
1993;SDS011;998;49.906;10.908;2023-03-04T00:14:52;11.60;;;7.10;;
1993;SDS011;998;49.906;10.908;2023-03-04T00:17:19;9.73;;;6.80;;
1993;SDS011;998;49.906;10.908;2023-03-04T00:19:47;13.20;;;8.60;;
1993;SDS011;998;49.906;10.908;2023-03-04T00:22:14;12.00;;;8.00;;
1993;SDS011;998;49.906;10.908;2023-03-04T00:24:42;12.10;;;7.27;;
1993;SDS011;998;49.906;10.908;2023-03-04T00:27:09;12.40;;;8.07;;
1993;SDS011;998;49.906;10.908;2023-03-04T00:29:36;12.90;;;8.00;;
1993;SDS011;998;49.906;10.908;2023-03-04T00:32:05;16.33;;;7.67;;
1993;SDS011;998;49.906;10.908;2023-03-04T00:34:33;11.73;;;6.80;;
1993;SDS011;998;49.906;10.908;2023-03-04T00:37:00;14.53;;;8.00;;
1993;SDS011;998;49.906;10.908;2023-03-04T00:39:28;9.67;;;6.50;;
1993;SDS011;998;49.906;10.908;2023-03-04T00:41:55;11.13;;;7.17;;
1993;SDS011;998;49.906;10.908;2023-03-04T00:44:23;10.93;;;6.90;;
1993;SDS011;998;49.906;10.908;2023-03-04T00:46:50;10.43;;;6.17;;
1993;SDS011;998;49.906;10.908;2023-03-04T00:49:19;12.07;;;7.70;;
1993;SDS011;998;49.906;10.908;2023-03-04T00:51:47;10.90;;;7.43;;
1993;SDS011;998;49.906;10.908;2023-03-04T00:54:14;12.63;;;7.70;;
1993;SDS011;998;49.906;10.908;2023-03-04T00:56:42;11.33;;;7.87;;
1993;SDS011;998;49.906;10.908;2023-03-04T00:59:09;10.40;;;7.87;;
1993;SDS011;998;49.906;10.908;2023-03-04T01:01:36;11.83;;;6.50;;
1993;SDS011;998;49.906;10.908;2023-03-04T01:04:04;16.03;;;8.07;;
1993;SDS011;998;49.906;10.908;2023-03-04T01:06:32;13.90;;;7.40;;
1993;SDS011;998;49.906;10.908;2023-03-04T01:09:00;15.20;;;7.40;;
1993;SDS011;998;49.906;10.908;2023-03-04T01:11:27;11.03;;;7.07;;
1993;SDS011;998;49.906;10.908;2023-03-04T01:13:55;11.17;;;7.73;;
1993;SDS011;998;49.906;10.908;2023-03-04T01:16:22;10.67;;;5.87;;
1993;SDS011;998;49.906;10.908;2023-03-04T01:18:49;12.37;;;7.03;;
1993;SDS011;998;49.906;10.908;2023-03-04T01:21:17;11.35;;;7.00;;
1993;SDS011;998;49.906;10.908;2023-03-04T01:23:46;12.37;;;5.13;;
1993;SDS011;998;49.906;10.908;2023-03-04T01:26:13;9.40;;;5.80;;
1993;SDS011;998;49.906;10.908;2023-03-04T01:28:40;11.93;;;6.87;;
1993;SDS011;998;49.906;10.908;2023-03-04T01:31:08;10.33;;;6.27;;
1993;SDS011;998;49.906;10.908;2023-03-04T01:33:35;11.90;;;7.93;;
1993;SDS011;998;49.906;10.908;2023-03-04T01:36:03;13.77;;;7.13;;
1993;SDS011;998;49.906;10.908;2023-03-04T01:38:30;11.87;;;6.73;;
1993;SDS011;998;49.906;10.908;2023-03-04T01:40:59;14.30;;;7.93;;
1993;SDS011;998;49.906;10.908;2023-03-04T01:43:28;12.43;;;7.57;;
1993;SDS011;998;49.906;10.908;2023-03-04T01:45:56;10.60;;;7.37;;
1993;SDS011;998;49.906;10.908;2023-03-04T01:48:24;10.87;;;6.97;;
1993;SDS011;998;49.906;10.908;2023-03-04T01:50:54;10.13;;;5.63;;
1993;SDS011;998;49.906;10.908;2023-03-04T01:53:24;10.43;;;6.10;;
1993;SDS011;998;49.906;10.908;2023-03-04T01:55:53;12.43;;;6.80;;
1993;SDS011;998;49.906;10.908;2023-03-04T01:58:27;11.30;;;6.30;;
1993;SDS011;998;49.906;10.908;2023-03-04T02:00:55;12.80;;;7.20;;
1993;SDS011;998;49.906;10.908;2023-03-04T02:03:23;11.40;;;6.57;;
1993;SDS011;998;49.906;10.908;2023-03-04T02:05:51;14.00;;;6.60;;
1993;SDS011;998;49.906;10.908;2023-03-04T02:08:20;11.37;;;6.30;;
1993;SDS011;998;49.906;10.908;2023-03-04T02:10:49;12.17;;;7.47;;
1993;SDS011;998;49.906;10.908;2023-03-04T02:13:17;12.70;;;6.83;;
1993;SDS011;998;49.906;10.908;2023-03-04T02:15:46;11.37;;;6.17;;
1993;SDS011;998;49.906;10.908;2023-03-04T02:18:15;11.63;;;6.57;;
1993;SDS011;998;49.906;10.908;2023-03-04T02:20:46;11.50;;;6.87;;
1993;SDS011;998;49.906;10.908;2023-03-04T02:23:19;13.87;;;6.50;;
1993;SDS011;998;49.906;10.908;2023-03-04T02:28:34;10.43;;;6.27;;
1993;SDS011;998;49.906;10.908;2023-03-04T02:31:02;14.93;;;8.57;;
1993;SDS011;998;49.906;10.908;2023-03-04T02:33:29;13.57;;;7.20;;
1993;SDS011;998;49.906;10.908;2023-03-04T02:35:58;11.63;;;6.60;;
1993;SDS011;998;49.906;10.908;2023-03-04T02:38:25;13.13;;;6.70;;
1993;SDS011;998;49.906;10.908;2023-03-04T02:40:53;14.70;;;6.60;;
1993;SDS011;998;49.906;10.908;2023-03-04T02:43:23;11.10;;;6.57;;
1993;SDS011;998;49.906;10.908;2023-03-04T02:45:50;9.00;;;5.63;;
1993;SDS011;998;49.906;10.908;2023-03-04T02:48:19;8.30;;;4.77;;
1993;SDS011;998;49.906;10.908;2023-03-04T02:50:48;11.40;;;6.43;;
1993;SDS011;998;49.906;10.908;2023-03-04T02:53:18;11.40;;;6.40;;
1993;SDS011;998;49.906;10.908;2023-03-04T02:55:46;16.90;;;6.37;;
1993;SDS011;998;49.906;10.908;2023-03-04T02:58:14;11.00;;;6.87;;
1993;SDS011;998;49.906;10.908;2023-03-04T03:00:43;11.93;;;6.00;;
1993;SDS011;998;49.906;10.908;2023-03-04T03:03:10;11.60;;;6.27;;
1993;SDS011;998;49.906;10.908;2023-03-04T03:05:38;11.37;;;6.67;;
1993;SDS011;998;49.906;10.908;2023-03-04T03:08:05;11.43;;;6.03;;
1993;SDS011;998;49.906;10.908;2023-03-04T03:10:33;12.67;;;6.30;;
1993;SDS011;998;49.906;10.908;2023-03-04T03:13:01;9.63;;;6.90;;
1993;SDS011;998;49.906;10.908;2023-03-04T03:15:28;10.23;;;6.57;;
1993;SDS011;998;49.906;10.908;2023-03-04T03:17:57;13.13;;;6.53;;
1993;SDS011;998;49.906;10.908;2023-03-04T03:20:25;12.47;;;6.70;;
1993;SDS011;998;49.906;10.908;2023-03-04T03:22:52;9.50;;;6.30;;
1993;SDS011;998;49.906;10.908;2023-03-04T03:25:19;9.40;;;7.03;;
1993;SDS011;998;49.906;10.908;2023-03-04T03:27:47;9.87;;;5.77;;
1993;SDS011;998;49.906;10.908;2023-03-04T03:30:14;15.17;;;7.47;;
1993;SDS011;998;49.906;10.908;2023-03-04T03:32:41;10.57;;;6.50;;
1993;SDS011;998;49.906;10.908;2023-03-04T03:35:10;12.30;;;6.70;;
1993;SDS011;998;49.906;10.908;2023-03-04T03:37:37;17.40;;;7.00;;
1993;SDS011;998;49.906;10.908;2023-03-04T03:40:05;11.83;;;6.47;;
1993;SDS011;998;49.906;10.908;2023-03-04T03:42:33;17.93;;;7.27;;
1993;SDS011;998;49.906;10.908;2023-03-04T03:45:01;15.63;;;6.60;;
1993;SDS011;998;49.906;10.908;2023-03-04T03:47:29;9.63;;;5.97;;
1993;SDS011;998;49.906;10.908;2023-03-04T03:49:56;13.53;;;6.60;;
1993;SDS011;998;49.906;10.908;2023-03-04T03:52:25;9.73;;;5.67;;
1993;SDS011;998;49.906;10.908;2023-03-04T03:54:52;12.93;;;6.23;;
1993;SDS011;998;49.906;10.908;2023-03-04T03:57:20;13.90;;;7.20;;
1993;SDS011;998;49.906;10.908;2023-03-04T03:59:47;10.50;;;7.50;;
1993;SDS011;998;49.906;10.908;2023-03-04T04:02:14;14.00;;;7.80;;
1993;SDS011;998;49.906;10.908;2023-03-04T04:04:42;10.43;;;6.23;;
1993;SDS011;998;49.906;10.908;2023-03-04T04:07:09;12.53;;;6.40;;
1993;SDS011;998;49.906;10.908;2023-03-04T04:09:38;12.87;;;7.00;;
1993;SDS011;998;49.906;10.908;2023-03-04T04:12:06;13.73;;;7.03;;
1993;SDS011;998;49.906;10.908;2023-03-04T04:14:33;10.90;;;6.60;;
1993;SDS011;998;49.906;10.908;2023-03-04T04:17:01;12.63;;;6.97;;
1993;SDS011;998;49.906;10.908;2023-03-04T04:19:28;12.33;;;9.00;;
1993;SDS011;998;49.906;10.908;2023-03-04T04:21:55;14.60;;;7.10;;
1993;SDS011;998;49.906;10.908;2023-03-04T04:24:23;10.80;;;6.20;;
1993;SDS011;998;49.906;10.908;2023-03-04T04:26:52;12.13;;;6.50;;
1993;SDS011;998;49.906;10.908;2023-03-04T04:29:19;12.60;;;6.90;;
1993;SDS011;998;49.906;10.908;2023-03-04T04:31:47;13.40;;;7.87;;
1993;SDS011;998;49.906;10.908;2023-03-04T04:34:14;13.70;;;7.27;;
1993;SDS011;998;49.906;10.908;2023-03-04T04:36:42;15.07;;;8.53;;
1993;SDS011;998;49.906;10.908;2023-03-04T04:39:09;11.50;;;6.90;;
1993;SDS011;998;49.906;10.908;2023-03-04T04:41:37;12.40;;;7.30;;
1993;SDS011;998;49.906;10.908;2023-03-04T04:44:08;10.73;;;7.30;;
1993;SDS011;998;49.906;10.908;2023-03-04T04:46:36;12.70;;;7.60;;
1993;SDS011;998;49.906;10.908;2023-03-04T04:49:03;14.07;;;7.23;;
1993;SDS011;998;49.906;10.908;2023-03-04T04:51:31;14.00;;;7.40;;
1993;SDS011;998;49.906;10.908;2023-03-04T04:53:59;13.93;;;8.30;;
1993;SDS011;998;49.906;10.908;2023-03-04T04:56:27;13.30;;;7.97;;
1993;SDS011;998;49.906;10.908;2023-03-04T04:58:56;15.97;;;7.57;;
1993;SDS011;998;49.906;10.908;2023-03-04T05:01:26;13.80;;;8.10;;
1993;SDS011;998;49.906;10.908;2023-03-04T05:03:54;15.40;;;8.53;;
1993;SDS011;998;49.906;10.908;2023-03-04T05:06:21;11.90;;;8.00;;
1993;SDS011;998;49.906;10.908;2023-03-04T05:08:50;14.10;;;6.83;;
1993;SDS011;998;49.906;10.908;2023-03-04T05:11:18;14.07;;;6.97;;
1993;SDS011;998;49.906;10.908;2023-03-04T05:13:46;14.90;;;8.23;;
1993;SDS011;998;49.906;10.908;2023-03-04T05:16:14;14.63;;;8.50;;
1993;SDS011;998;49.906;10.908;2023-03-04T05:18:44;17.73;;;9.17;;
1993;SDS011;998;49.906;10.908;2023-03-04T05:21:11;13.70;;;7.97;;
1993;SDS011;998;49.906;10.908;2023-03-04T05:23:39;15.33;;;8.73;;
1993;SDS011;998;49.906;10.908;2023-03-04T05:26:09;12.20;;;7.67;;
1993;SDS011;998;49.906;10.908;2023-03-04T05:28:38;14.73;;;8.37;;
1993;SDS011;998;49.906;10.908;2023-03-04T05:31:06;14.50;;;8.80;;
1993;SDS011;998;49.906;10.908;2023-03-04T05:33:33;19.83;;;9.17;;
1993;SDS011;998;49.906;10.908;2023-03-04T05:36:03;13.87;;;8.70;;
1993;SDS011;998;49.906;10.908;2023-03-04T05:38:32;16.47;;;10.10;;
1993;SDS011;998;49.906;10.908;2023-03-04T05:41:01;16.00;;;8.67;;
1993;SDS011;998;49.906;10.908;2023-03-04T05:43:29;14.00;;;7.67;;
1993;SDS011;998;49.906;10.908;2023-03-04T05:45:59;16.40;;;8.00;;
1993;SDS011;998;49.906;10.908;2023-03-04T05:48:27;16.17;;;10.73;;
1993;SDS011;998;49.906;10.908;2023-03-04T05:50:55;16.50;;;8.90;;
1993;SDS011;998;49.906;10.908;2023-03-04T05:53:24;15.73;;;10.30;;
1993;SDS011;998;49.906;10.908;2023-03-04T05:55:52;15.03;;;8.10;;
1993;SDS011;998;49.906;10.908;2023-03-04T05:58:20;14.90;;;8.63;;
1993;SDS011;998;49.906;10.908;2023-03-04T06:00:48;14.27;;;8.70;;
1993;SDS011;998;49.906;10.908;2023-03-04T06:03:15;17.07;;;9.80;;
1993;SDS011;998;49.906;10.908;2023-03-04T06:05:44;13.33;;;7.67;;
1993;SDS011;998;49.906;10.908;2023-03-04T06:08:11;13.20;;;8.97;;
1993;SDS011;998;49.906;10.908;2023-03-04T06:10:40;15.83;;;8.40;;
1993;SDS011;998;49.906;10.908;2023-03-04T06:13:08;14.50;;;8.03;;
1993;SDS011;998;49.906;10.908;2023-03-04T06:15:36;18.23;;;9.20;;
1993;SDS011;998;49.906;10.908;2023-03-04T06:18:05;15.33;;;8.70;;
1993;SDS011;998;49.906;10.908;2023-03-04T06:20:32;14.53;;;9.37;;
1993;SDS011;998;49.906;10.908;2023-03-04T06:23:00;12.87;;;7.77;;
1993;SDS011;998;49.906;10.908;2023-03-04T06:25:27;18.03;;;9.23;;
1993;SDS011;998;49.906;10.908;2023-03-04T06:27:56;15.50;;;8.63;;
1993;SDS011;998;49.906;10.908;2023-03-04T06:30:24;17.67;;;9.03;;
1993;SDS011;998;49.906;10.908;2023-03-04T06:32:51;17.20;;;10.43;;
1993;SDS011;998;49.906;10.908;2023-03-04T06:35:19;18.27;;;10.20;;
1993;SDS011;998;49.906;10.908;2023-03-04T06:37:46;17.57;;;10.70;;
1993;SDS011;998;49.906;10.908;2023-03-04T06:40:14;18.80;;;10.80;;
1993;SDS011;998;49.906;10.908;2023-03-04T06:42:41;14.37;;;9.70;;
1993;SDS011;998;49.906;10.908;2023-03-04T06:45:11;17.50;;;8.60;;
1993;SDS011;998;49.906;10.908;2023-03-04T06:47:38;20.53;;;10.37;;
1993;SDS011;998;49.906;10.908;2023-03-04T06:50:06;22.40;;;10.73;;
1993;SDS011;998;49.906;10.908;2023-03-04T06:52:34;21.20;;;11.17;;
1993;SDS011;998;49.906;10.908;2023-03-04T06:55:01;20.43;;;10.90;;
1993;SDS011;998;49.906;10.908;2023-03-04T06:57:29;17.43;;;10.90;;
1993;SDS011;998;49.906;10.908;2023-03-04T06:59:56;25.93;;;11.47;;
1993;SDS011;998;49.906;10.908;2023-03-04T07:02:25;23.73;;;11.23;;
1993;SDS011;998;49.906;10.908;2023-03-04T07:04:53;18.13;;;9.00;;
1993;SDS011;998;49.906;10.908;2023-03-04T07:07:20;20.30;;;10.93;;
1993;SDS011;998;49.906;10.908;2023-03-04T07:09:47;18.80;;;11.57;;
1993;SDS011;998;49.906;10.908;2023-03-04T07:12:15;18.77;;;10.10;;
1993;SDS011;998;49.906;10.908;2023-03-04T07:14:42;18.77;;;10.00;;
1993;SDS011;998;49.906;10.908;2023-03-04T07:17:09;15.57;;;10.13;;
1993;SDS011;998;49.906;10.908;2023-03-04T07:19:38;20.30;;;11.40;;
1993;SDS011;998;49.906;10.908;2023-03-04T07:22:06;16.00;;;9.93;;
1993;SDS011;998;49.906;10.908;2023-03-04T07:24:33;21.20;;;9.73;;
1993;SDS011;998;49.906;10.908;2023-03-04T07:27:01;19.63;;;11.70;;
1993;SDS011;998;49.906;10.908;2023-03-04T07:29:28;19.10;;;11.87;;
1993;SDS011;998;49.906;10.908;2023-03-04T07:31:55;18.37;;;9.23;;
1993;SDS011;998;49.906;10.908;2023-03-04T07:34:23;20.50;;;12.30;;
1993;SDS011;998;49.906;10.908;2023-03-04T07:36:52;16.37;;;8.90;;
1993;SDS011;998;49.906;10.908;2023-03-04T07:39:19;16.60;;;9.30;;
1993;SDS011;998;49.906;10.908;2023-03-04T07:41:46;21.80;;;10.90;;
1993;SDS011;998;49.906;10.908;2023-03-04T07:44:14;18.20;;;10.20;;
1993;SDS011;998;49.906;10.908;2023-03-04T07:46:41;16.67;;;9.53;;
1993;SDS011;998;49.906;10.908;2023-03-04T07:49:10;17.53;;;9.73;;
1993;SDS011;998;49.906;10.908;2023-03-04T07:51:38;17.90;;;9.23;;
1993;SDS011;998;49.906;10.908;2023-03-04T07:54:07;15.77;;;9.53;;
1993;SDS011;998;49.906;10.908;2023-03-04T07:56:35;19.47;;;10.67;;
1993;SDS011;998;49.906;10.908;2023-03-04T07:59:03;15.97;;;9.73;;
1993;SDS011;998;49.906;10.908;2023-03-04T08:01:31;18.87;;;10.00;;
1993;SDS011;998;49.906;10.908;2023-03-04T08:03:59;16.63;;;10.07;;
1993;SDS011;998;49.906;10.908;2023-03-04T08:06:27;16.87;;;9.93;;
1993;SDS011;998;49.906;10.908;2023-03-04T08:08:55;16.33;;;9.93;;
1993;SDS011;998;49.906;10.908;2023-03-04T08:11:25;18.03;;;9.90;;
1993;SDS011;998;49.906;10.908;2023-03-04T08:13:53;21.27;;;10.17;;
1993;SDS011;998;49.906;10.908;2023-03-04T08:16:20;18.50;;;9.90;;
1993;SDS011;998;49.906;10.908;2023-03-04T08:18:51;16.70;;;10.40;;
1993;SDS011;998;49.906;10.908;2023-03-04T08:21:19;18.57;;;11.17;;
1993;SDS011;998;49.906;10.908;2023-03-04T08:23:48;17.37;;;11.17;;
1993;SDS011;998;49.906;10.908;2023-03-04T08:26:17;18.33;;;10.40;;
1993;SDS011;998;49.906;10.908;2023-03-04T08:28:47;21.37;;;10.67;;
1993;SDS011;998;49.906;10.908;2023-03-04T08:31:15;17.30;;;8.80;;
1993;SDS011;998;49.906;10.908;2023-03-04T08:33:43;21.60;;;11.20;;
1993;SDS011;998;49.906;10.908;2023-03-04T08:36:11;19.73;;;9.97;;
1993;SDS011;998;49.906;10.908;2023-03-04T08:38:39;21.03;;;9.90;;
1993;SDS011;998;49.906;10.908;2023-03-04T08:41:06;19.70;;;10.37;;
1993;SDS011;998;49.906;10.908;2023-03-04T08:43:34;18.07;;;9.57;;
1993;SDS011;998;49.906;10.908;2023-03-04T08:46:03;19.70;;;11.07;;
1993;SDS011;998;49.906;10.908;2023-03-04T08:48:31;17.20;;;10.67;;
1993;SDS011;998;49.906;10.908;2023-03-04T08:50:59;20.67;;;10.37;;
1993;SDS011;998;49.906;10.908;2023-03-04T08:53:26;20.43;;;11.53;;
1993;SDS011;998;49.906;10.908;2023-03-04T08:55:54;19.87;;;12.00;;
1993;SDS011;998;49.906;10.908;2023-03-04T08:58:21;22.10;;;9.20;;
1993;SDS011;998;49.906;10.908;2023-03-04T09:00:48;19.47;;;10.23;;
1993;SDS011;998;49.906;10.908;2023-03-04T09:03:18;15.23;;;9.47;;
1993;SDS011;998;49.906;10.908;2023-03-04T09:05:46;18.37;;;10.17;;
1993;SDS011;998;49.906;10.908;2023-03-04T09:08:14;16.80;;;9.17;;
1993;SDS011;998;49.906;10.908;2023-03-04T09:10:41;15.50;;;9.13;;
1993;SDS011;998;49.906;10.908;2023-03-04T09:13:09;15.00;;;9.70;;
1993;SDS011;998;49.906;10.908;2023-03-04T09:15:36;17.80;;;10.17;;
1993;SDS011;998;49.906;10.908;2023-03-04T09:18:04;12.67;;;8.27;;
1993;SDS011;998;49.906;10.908;2023-03-04T09:20:33;16.80;;;9.73;;
1993;SDS011;998;49.906;10.908;2023-03-04T09:23:00;21.50;;;9.80;;
1993;SDS011;998;49.906;10.908;2023-03-04T09:25:28;21.37;;;10.10;;
1993;SDS011;998;49.906;10.908;2023-03-04T09:27:55;12.97;;;8.43;;
1993;SDS011;998;49.906;10.908;2023-03-04T09:30:22;15.67;;;9.43;;
1993;SDS011;998;49.906;10.908;2023-03-04T09:32:50;14.53;;;8.40;;
1993;SDS011;998;49.906;10.908;2023-03-04T09:35:17;15.00;;;8.47;;
1993;SDS011;998;49.906;10.908;2023-03-04T09:37:46;14.37;;;8.20;;
1993;SDS011;998;49.906;10.908;2023-03-04T09:40:15;16.83;;;7.87;;
1993;SDS011;998;49.906;10.908;2023-03-04T09:42:46;15.87;;;8.90;;
1993;SDS011;998;49.906;10.908;2023-03-04T09:45:18;18.93;;;8.80;;
1993;SDS011;998;49.906;10.908;2023-03-04T09:47:47;19.47;;;8.80;;
1993;SDS011;998;49.906;10.908;2023-03-04T09:50:17;15.80;;;8.77;;
1993;SDS011;998;49.906;10.908;2023-03-04T09:52:51;14.90;;;8.43;;
1993;SDS011;998;49.906;10.908;2023-03-04T09:55:30;16.93;;;7.90;;
1993;SDS011;998;49.906;10.908;2023-03-04T09:58:01;12.50;;;7.00;;
1993;SDS011;998;49.906;10.908;2023-03-04T10:00:34;22.43;;;8.30;;
1993;SDS011;998;49.906;10.908;2023-03-04T10:03:11;18.67;;;8.57;;
1993;SDS011;998;49.906;10.908;2023-03-04T10:05:45;16.53;;;7.90;;
1993;SDS011;998;49.906;10.908;2023-03-04T10:08:35;13.90;;;8.90;;
1993;SDS011;998;49.906;10.908;2023-03-04T10:11:08;15.07;;;7.67;;
1993;SDS011;998;49.906;10.908;2023-03-04T10:13:42;13.37;;;8.63;;
1993;SDS011;998;49.906;10.908;2023-03-04T10:16:18;17.13;;;7.77;;
1993;SDS011;998;49.906;10.908;2023-03-04T10:18:48;10.90;;;7.53;;
1993;SDS011;998;49.906;10.908;2023-03-04T10:21:19;15.23;;;7.67;;
1993;SDS011;998;49.906;10.908;2023-03-04T10:23:53;11.20;;;7.70;;
1993;SDS011;998;49.906;10.908;2023-03-04T10:26:20;15.47;;;6.90;;
1993;SDS011;998;49.906;10.908;2023-03-04T10:28:48;12.53;;;8.70;;
1993;SDS011;998;49.906;10.908;2023-03-04T10:31:16;17.13;;;8.50;;
1993;SDS011;998;49.906;10.908;2023-03-04T10:33:48;17.80;;;8.30;;
1993;SDS011;998;49.906;10.908;2023-03-04T10:36:28;15.43;;;7.37;;
1993;SDS011;998;49.906;10.908;2023-03-04T10:39:04;11.03;;;6.53;;
1993;SDS011;998;49.906;10.908;2023-03-04T10:41:35;11.70;;;7.20;;
1993;SDS011;998;49.906;10.908;2023-03-04T10:44:11;18.47;;;8.10;;
1993;SDS011;998;49.906;10.908;2023-03-04T10:46:42;13.30;;;8.13;;
1993;SDS011;998;49.906;10.908;2023-03-04T10:49:10;8.10;;;6.50;;
1993;SDS011;998;49.906;10.908;2023-03-04T10:51:43;11.63;;;7.07;;
1993;SDS011;998;49.906;10.908;2023-03-04T10:54:19;12.30;;;7.00;;
1993;SDS011;998;49.906;10.908;2023-03-04T10:56:57;9.57;;;5.53;;
1993;SDS011;998;49.906;10.908;2023-03-04T10:59:39;16.73;;;6.60;;
1993;SDS011;998;49.906;10.908;2023-03-04T11:02:14;9.57;;;4.90;;
1993;SDS011;998;49.906;10.908;2023-03-04T11:04:48;15.17;;;7.50;;
1993;SDS011;998;49.906;10.908;2023-03-04T11:07:18;9.90;;;6.07;;
1993;SDS011;998;49.906;10.908;2023-03-04T11:09:47;16.17;;;6.30;;
1993;SDS011;998;49.906;10.908;2023-03-04T11:12:15;15.77;;;6.87;;
1993;SDS011;998;49.906;10.908;2023-03-04T11:14:45;10.60;;;7.63;;
1993;SDS011;998;49.906;10.908;2023-03-04T11:17:21;16.67;;;7.40;;
1993;SDS011;998;49.906;10.908;2023-03-04T11:19:52;12.10;;;6.77;;
1993;SDS011;998;49.906;10.908;2023-03-04T11:22:23;17.07;;;7.30;;
1993;SDS011;998;49.906;10.908;2023-03-04T11:24:57;17.93;;;7.00;;
1993;SDS011;998;49.906;10.908;2023-03-04T11:27:30;11.87;;;6.53;;
1993;SDS011;998;49.906;10.908;2023-03-04T11:30:14;11.40;;;6.70;;
1993;SDS011;998;49.906;10.908;2023-03-04T11:32:51;15.13;;;6.97;;
1993;SDS011;998;49.906;10.908;2023-03-04T11:35:23;10.10;;;6.23;;
1993;SDS011;998;49.906;10.908;2023-03-04T11:37:58;15.33;;;7.60;;
1993;SDS011;998;49.906;10.908;2023-03-04T11:40:33;10.40;;;5.47;;
1993;SDS011;998;49.906;10.908;2023-03-04T11:43:05;14.13;;;5.80;;
1993;SDS011;998;49.906;10.908;2023-03-04T11:45:43;9.40;;;6.33;;
1993;SDS011;998;49.906;10.908;2023-03-04T11:48:29;14.00;;;7.20;;
1993;SDS011;998;49.906;10.908;2023-03-04T11:51:08;14.37;;;5.80;;
1993;SDS011;998;49.906;10.908;2023-03-04T11:53:43;11.90;;;6.20;;
1993;SDS011;998;49.906;10.908;2023-03-04T11:56:29;9.73;;;5.23;;
1993;SDS011;998;49.906;10.908;2023-03-04T11:59:21;12.00;;;5.80;;
1993;SDS011;998;49.906;10.908;2023-03-04T12:02:15;13.80;;;5.97;;
1993;SDS011;998;49.906;10.908;2023-03-04T12:07:51;10.70;;;5.30;;
1993;SDS011;998;49.906;10.908;2023-03-04T12:10:43;16.93;;;5.90;;
1993;SDS011;998;49.906;10.908;2023-03-04T12:13:23;20.27;;;7.63;;
1993;SDS011;998;49.906;10.908;2023-03-04T12:16:10;12.23;;;5.90;;
1993;SDS011;998;49.906;10.908;2023-03-04T12:19:00;12.23;;;7.07;;
1993;SDS011;998;49.906;10.908;2023-03-04T12:21:55;15.40;;;5.87;;
1993;SDS011;998;49.906;10.908;2023-03-04T12:24:40;10.40;;;5.40;;
1993;SDS011;998;49.906;10.908;2023-03-04T12:27:27;16.37;;;6.10;;
1993;SDS011;998;49.906;10.908;2023-03-04T12:30:04;11.67;;;5.57;;
1993;SDS011;998;49.906;10.908;2023-03-04T12:32:42;9.53;;;5.57;;
1993;SDS011;998;49.906;10.908;2023-03-04T12:35:23;11.20;;;6.17;;
1993;SDS011;998;49.906;10.908;2023-03-04T12:38:07;13.30;;;5.97;;
1993;SDS011;998;49.906;10.908;2023-03-04T12:40:52;13.93;;;4.83;;
1993;SDS011;998;49.906;10.908;2023-03-04T12:43:32;8.10;;;4.90;;
1993;SDS011;998;49.906;10.908;2023-03-04T12:46:21;9.97;;;5.80;;
1993;SDS011;998;49.906;10.908;2023-03-04T12:49:00;13.67;;;4.80;;
1993;SDS011;998;49.906;10.908;2023-03-04T12:51:42;14.23;;;5.50;;
1993;SDS011;998;49.906;10.908;2023-03-04T12:54:18;10.73;;;4.87;;
1993;SDS011;998;49.906;10.908;2023-03-04T12:56:52;16.93;;;6.17;;
1993;SDS011;998;49.906;10.908;2023-03-04T12:59:22;8.00;;;4.77;;
1993;SDS011;998;49.906;10.908;2023-03-04T13:02:00;9.23;;;5.03;;
1993;SDS011;998;49.906;10.908;2023-03-04T13:04:56;14.10;;;5.10;;
1993;SDS011;998;49.906;10.908;2023-03-04T13:07:36;16.60;;;5.57;;
1993;SDS011;998;49.906;10.908;2023-03-04T13:10:11;13.17;;;4.87;;
1993;SDS011;998;49.906;10.908;2023-03-04T13:12:46;13.87;;;5.20;;
1993;SDS011;998;49.906;10.908;2023-03-04T13:18:12;6.60;;;4.40;;
1993;SDS011;998;49.906;10.908;2023-03-04T13:21:06;15.43;;;5.67;;
1993;SDS011;998;49.906;10.908;2023-03-04T13:23:46;9.00;;;4.87;;
1993;SDS011;998;49.906;10.908;2023-03-04T13:26:17;14.20;;;5.43;;
1993;SDS011;998;49.906;10.908;2023-03-04T13:28:53;14.53;;;5.50;;
1993;SDS011;998;49.906;10.908;2023-03-04T13:31:43;8.00;;;4.67;;
1993;SDS011;998;49.906;10.908;2023-03-04T13:34:47;9.97;;;4.63;;
1993;SDS011;998;49.906;10.908;2023-03-04T13:37:28;8.07;;;4.23;;
1993;SDS011;998;49.906;10.908;2023-03-04T13:40:22;11.07;;;5.30;;
1993;SDS011;998;49.906;10.908;2023-03-04T13:43:23;11.70;;;5.20;;
1993;SDS011;998;49.906;10.908;2023-03-04T13:45:52;10.93;;;4.33;;
1993;SDS011;998;49.906;10.908;2023-03-04T13:48:22;12.73;;;4.50;;
1993;SDS011;998;49.906;10.908;2023-03-04T13:51:02;9.53;;;3.93;;
1993;SDS011;998;49.906;10.908;2023-03-04T13:53:32;13.47;;;4.90;;
1993;SDS011;998;49.906;10.908;2023-03-04T13:56:09;5.43;;;3.90;;
1993;SDS011;998;49.906;10.908;2023-03-04T13:58:48;12.73;;;5.10;;
1993;SDS011;998;49.906;10.908;2023-03-04T14:01:21;8.50;;;5.00;;
1993;SDS011;998;49.906;10.908;2023-03-04T14:03:52;8.13;;;4.20;;
1993;SDS011;998;49.906;10.908;2023-03-04T14:06:22;10.30;;;4.07;;
1993;SDS011;998;49.906;10.908;2023-03-04T14:08:50;11.13;;;4.70;;
1993;SDS011;998;49.906;10.908;2023-03-04T14:11:24;12.27;;;4.97;;
1993;SDS011;998;49.906;10.908;2023-03-04T14:13:57;18.50;;;4.73;;
1993;SDS011;998;49.906;10.908;2023-03-04T14:16:27;9.90;;;4.60;;
1993;SDS011;998;49.906;10.908;2023-03-04T14:18:55;9.10;;;4.00;;
1993;SDS011;998;49.906;10.908;2023-03-04T14:21:25;8.90;;;4.90;;
1993;SDS011;998;49.906;10.908;2023-03-04T14:24:00;12.33;;;4.30;;
1993;SDS011;998;49.906;10.908;2023-03-04T14:26:29;9.20;;;4.77;;
1993;SDS011;998;49.906;10.908;2023-03-04T14:28:57;10.27;;;4.87;;
1993;SDS011;998;49.906;10.908;2023-03-04T14:31:27;11.77;;;5.47;;
1993;SDS011;998;49.906;10.908;2023-03-04T14:33:57;14.53;;;5.23;;
1993;SDS011;998;49.906;10.908;2023-03-04T14:36:28;8.23;;;3.97;;
1993;SDS011;998;49.906;10.908;2023-03-04T14:38:58;12.00;;;5.37;;
1993;SDS011;998;49.906;10.908;2023-03-04T14:41:27;10.20;;;5.30;;
1993;SDS011;998;49.906;10.908;2023-03-04T14:44:06;14.50;;;5.97;;
1993;SDS011;998;49.906;10.908;2023-03-04T14:46:39;7.80;;;4.70;;
1993;SDS011;998;49.906;10.908;2023-03-04T14:49:11;11.83;;;4.93;;
1993;SDS011;998;49.906;10.908;2023-03-04T14:51:42;12.20;;;5.67;;
1993;SDS011;998;49.906;10.908;2023-03-04T14:54:23;17.93;;;6.27;;
1993;SDS011;998;49.906;10.908;2023-03-04T14:56:56;8.50;;;4.20;;
1993;SDS011;998;49.906;10.908;2023-03-04T14:59:32;10.60;;;5.60;;
1993;SDS011;998;49.906;10.908;2023-03-04T15:04:56;8.87;;;4.87;;
1993;SDS011;998;49.906;10.908;2023-03-04T15:07:29;15.33;;;4.47;;
1993;SDS011;998;49.906;10.908;2023-03-04T15:09:59;9.63;;;4.37;;
1993;SDS011;998;49.906;10.908;2023-03-04T15:12:30;12.20;;;4.63;;
1993;SDS011;998;49.906;10.908;2023-03-04T15:15:00;10.70;;;4.87;;
1993;SDS011;998;49.906;10.908;2023-03-04T15:17:29;15.77;;;4.70;;
1993;SDS011;998;49.906;10.908;2023-03-04T15:25:39;6.93;;;3.73;;
1993;SDS011;998;49.906;10.908;2023-03-04T15:28:09;14.10;;;4.87;;
1993;SDS011;998;49.906;10.908;2023-03-04T15:30:41;12.53;;;6.33;;
1993;SDS011;998;49.906;10.908;2023-03-04T15:33:09;9.67;;;4.10;;
1993;SDS011;998;49.906;10.908;2023-03-04T15:35:37;10.47;;;3.30;;
1993;SDS011;998;49.906;10.908;2023-03-04T15:38:10;9.77;;;4.30;;